Stacje pogodowe na całym świecie

Reklama
Isola Di Salina, Włochy (16415): temperatura & temperatura punktu rosy: 15.05.2018 13:00:00 - 21.05.2018 13:00:00 (CEST)Isola Di Salina, Włochy (16415): prędkość wiatru: 15.05.2018 13:00:00 - 21.05.2018 13:00:00 (CEST)Isola Di Salina, Włochy (16415): kierunek wiatru: 15.05.2018 13:00:00 - 21.05.2018 13:00:00 (CEST)Isola Di Salina, Włochy (16415): ciśnienie zredukowane do poziomu morza: 15.05.2018 13:00:00 - 21.05.2018 13:00:00 (CEST)Isola Di Salina, Włochy (16415): opady: 15.05.2018 13:00:00 - 21.05.2018 13:00:00 (CEST)
Data i godzina tt [°C] td [°C] ff [km/h] ff [kt] dd ppp [hPa] rr [mm]
21.05.2018 13:00:00 - - - - - - -
21.05.2018 12:00:00 20,4 19,3 9 5 N 1012,9 -
21.05.2018 11:00:00 20,3 19,2 5 3 NNW 1012,2 -
21.05.2018 10:00:00 19,7 19,2 2 1 NNW 1012,3 -
21.05.2018 09:00:00 19,4 18,9 5 3 SSE 1012,1 -
21.05.2018 08:00:00 18,5 18,0 0 0 N 1012,1 0,0
21.05.2018 07:00:00 18,2 17,2 0 0 N 1012,0 -
21.05.2018 06:00:00 17,9 16,9 2 1 W 1011,7 -
21.05.2018 05:00:00 18,1 16,4 5 3 WNW 1011,5 -
21.05.2018 04:00:00 18,3 16,0 2 1 W 1011,4 -
21.05.2018 03:00:00 18,5 14,5 4 2 W 1011,3 -
21.05.2018 02:00:00 18,7 15,3 2 1 S 1011,4 0,0
21.05.2018 01:00:00 18,7 17,0 8 4 S 1011,7 -
21.05.2018 00:00:00 19,0 17,3 11 6 SSE 1011,7 -
20.05.2018 23:00:00 18,7 17,5 13 7 SE 1011,7 -
20.05.2018 22:00:00 19,0 17,4 0 0 N 1011,6 -
20.05.2018 21:00:00 19,3 17,4 2 1 SSE 1011,4 -
20.05.2018 20:00:00 19,7 17,6 5 3 SE 1011,0 0,0
20.05.2018 19:00:00 20,3 16,9 5 3 ENE 1010,8 -
20.05.2018 18:00:00 21,3 17,2 4 2 NNE 1011,0 -
20.05.2018 17:00:00 21,9 15,9 2 1 E 1011,1 -
20.05.2018 16:00:00 21,5 15,9 2 1 NNE 1011,7 -
20.05.2018 15:00:00 21,8 15,8 4 2 N 1011,8 -
20.05.2018 14:00:00 21,6 16,0 4 2 ENE 1012,1 0,0
20.05.2018 13:00:00 20,3 16,9 4 2 NNE 1011,9 -
20.05.2018 12:00:00 22,1 18,6 11 6 SSE 1012,3 -
20.05.2018 11:00:00 20,9 18,0 11 6 SSE 1012,4 -
20.05.2018 10:00:00 19,9 18,3 22 12 S 1012,6 -
20.05.2018 09:00:00 19,3 18,8 16 9 SSE 1012,6 -
20.05.2018 08:00:00 18,1 17,7 13 7 S 1012,9 0,0
20.05.2018 07:00:00 16,9 16,5 8 4 S 1013,4 -
20.05.2018 06:00:00 16,4 15,9 5 3 S 1013,3 -
20.05.2018 05:00:00 16,5 15,6 4 2 S 1013,4 -
20.05.2018 04:00:00 16,3 14,9 0 0 N 1013,7 -
20.05.2018 03:00:00 16,3 14,1 5 3 S 1013,5 -
20.05.2018 02:00:00 16,1 14,7 5 3 S 1013,9 0,0
20.05.2018 01:00:00 16,3 15,6 4 2 S 1013,9 -
20.05.2018 00:00:00 16,8 16,1 13 7 S 1013,9 -
19.05.2018 23:00:00 17,2 16,3 9 5 SE 1013,8 -
19.05.2018 22:00:00 17,1 15,9 4 2 SSE 1013,7 -
19.05.2018 21:00:00 17,3 15,8 8 4 S 1013,4 -
19.05.2018 20:00:00 18,2 16,3 4 2 SE 1013,3 0,0
19.05.2018 19:00:00 18,9 16,3 4 2 E 1013,2 -
19.05.2018 18:00:00 19,8 17,7 5 3 NNE 1013,4 -
19.05.2018 17:00:00 19,2 17,6 8 4 N 1013,6 -
19.05.2018 16:00:00 18,7 17,3 11 6 N 1013,9 -
19.05.2018 15:00:00 18,7 17,1 13 7 NNW 1014,2 -
19.05.2018 14:00:00 19,3 16,1 11 6 N 1014,3 0,0
19.05.2018 13:00:00 20,1 17,1 5 3 NNE 1014,4 -
19.05.2018 12:00:00 19,7 16,9 5 3 NNE 1014,5 -
19.05.2018 11:00:00 19,7 17,4 4 2 ESE 1014,4 -
19.05.2018 10:00:00 20,3 18,9 4 2 SE 1014,1 -
19.05.2018 09:00:00 19,0 18,1 4 2 ESE 1014,2 -
19.05.2018 08:00:00 17,6 17,1 2 1 E 1014,2 0,0
19.05.2018 07:00:00 15,7 15,2 0 0 N 1013,8 -
19.05.2018 06:00:00 14,6 13,9 4 2 S 1013,5 -
19.05.2018 05:00:00 14,4 13,9 0 0 N 1013,3 -
19.05.2018 04:00:00 15,0 14,5 4 2 NW 1013,5 -
19.05.2018 03:00:00 15,2 14,7 4 2 NNW 1013,8 -
19.05.2018 02:00:00 15,8 15,4 8 4 NNW 1014,1 0,0
19.05.2018 01:00:00 15,9 15,4 9 5 NNW 1014,3 -
19.05.2018 00:00:00 15,6 15,1 5 3 WNW 1014,3 -
18.05.2018 23:00:00 16,0 15,3 13 7 NW 1014,3 -
18.05.2018 22:00:00 16,1 15,4 9 5 WNW 1014,0 -
18.05.2018 21:00:00 16,1 15,2 8 4 NNW 1013,5 -
18.05.2018 20:00:00 17,2 16,2 2 1 N 1013,7 -
18.05.2018 19:00:00 17,3 16,3 4 2 SE 1013,3 -
18.05.2018 18:00:00 16,9 15,9 8 4 SSW 1013,2 -
18.05.2018 17:00:00 16,9 15,7 2 1 ENE 1013,7 -
18.05.2018 16:00:00 17,0 15,8 4 2 WNW 1014,2 -
18.05.2018 15:00:00 17,0 16,0 2 1 WSW 1014,7 -
18.05.2018 14:00:00 16,0 14,6 4 2 NW 1014,7 -
18.05.2018 13:00:00 18,3 16,6 18 10 SSE 1015,0 -
18.05.2018 12:00:00 18,0 17,0 15 8 SE 1014,9 -
18.05.2018 11:00:00 18,0 17,1 15 8 SE 1014,6 -
18.05.2018 10:00:00 18,1 17,4 15 8 E 1014,5 -
18.05.2018 09:00:00 17,5 16,8 2 1 NNE 1014,7 -
18.05.2018 08:00:00 16,6 16,1 0 0 N 1014,6 -
18.05.2018 07:00:00 16,3 15,8 5 3 NNW 1014,1 -
18.05.2018 06:00:00 16,4 15,7 5 3 NW 1013,7 -
18.05.2018 05:00:00 16,1 15,2 5 3 WNW 1013,8 -
18.05.2018 04:00:00 16,6 15,7 8 4 NNW 1013,7 -
18.05.2018 03:00:00 17,0 16,0 5 3 N 1014,0 -
18.05.2018 02:00:00 17,0 15,8 2 1 NNE 1014,7 0,0
18.05.2018 01:00:00 17,1 15,6 2 1 NE 1015,0 -
18.05.2018 00:00:00 17,0 15,3 0 0 N 1015,4 -
17.05.2018 23:00:00 17,1 15,4 5 3 E 1015,3 -
17.05.2018 22:00:00 17,1 15,4 11 6 E 1015,0 -
17.05.2018 21:00:00 17,2 14,4 9 5 SE 1014,4 -
17.05.2018 20:00:00 17,6 13,4 21 11 SSE 1014,0 0,0
17.05.2018 19:00:00 18,0 15,0 11 6 SE 1014,1 -
17.05.2018 18:00:00 17,9 14,5 9 5 ENE 1014,6 -
17.05.2018 17:00:00 18,7 14,1 9 5 E 1014,7 -
17.05.2018 16:00:00 19,3 14,3 8 4 ENE 1014,8 -
17.05.2018 15:00:00 19,4 13,9 8 4 ESE 1015,3 -
17.05.2018 14:00:00 20,3 14,8 8 4 ESE 1015,6 0,0
17.05.2018 13:00:00 21,1 14,9 8 4 ESE 1016,2 -
17.05.2018 12:00:00 20,9 14,2 13 7 SE 1016,2 -
17.05.2018 11:00:00 20,3 14,8 11 6 SE 1016,5 -
17.05.2018 10:00:00 18,8 13,3 5 3 ESE 1016,6 -
17.05.2018 09:00:00 18,7 16,2 4 2 ESE 1016,5 -
17.05.2018 08:00:00 16,9 15,5 5 3 S 1016,2 0,0
17.05.2018 07:00:00 14,7 13,4 2 1 S 1016,2 -
17.05.2018 06:00:00 14,1 12,6 2 1 SSW 1016,1 -
17.05.2018 05:00:00 14,2 12,7 2 1 S 1015,7 -
17.05.2018 04:00:00 14,5 13,0 4 2 S 1015,5 -
17.05.2018 03:00:00 14,3 12,7 4 2 S 1015,5 -
17.05.2018 02:00:00 14,3 12,7 2 1 WSW 1015,6 0,0
17.05.2018 01:00:00 14,4 12,6 2 1 SSW 1016,2 -
17.05.2018 00:00:00 14,6 12,3 4 2 SSW 1016,5 -
16.05.2018 23:00:00 14,9 11,6 4 2 S 1016,5 -
16.05.2018 22:00:00 15,2 10,3 0 0 N 1016,5 -
16.05.2018 21:00:00 15,8 10,7 2 1 N 1016,2 -
16.05.2018 20:00:00 16,6 11,3 2 1 ESE 1016,2 -
16.05.2018 19:00:00 17,3 11,5 4 2 NNE 1016,3 -
16.05.2018 18:00:00 - - - - - - -
16.05.2018 17:00:00 - - - - - - -
16.05.2018 16:00:00 - - - - - - -
16.05.2018 15:00:00 - - - - - - -
16.05.2018 14:00:00 17,8 11,8 5 3 N 1017,3 -
16.05.2018 13:00:00 18,1 11,8 8 4 NNW 1017,3 -
16.05.2018 12:00:00 18,9 11,4 4 2 NNE 1017,7 -
16.05.2018 11:00:00 19,6 13,0 9 5 SSE 1017,7 -
16.05.2018 10:00:00 19,9 13,5 9 5 SSE 1017,6 -
16.05.2018 09:00:00 19,4 13,7 11 6 SSE 1017,1 -
16.05.2018 08:00:00 - - - - - - -
16.05.2018 07:00:00 - - - - - - -
16.05.2018 06:00:00 - - - - - - -
16.05.2018 05:00:00 - - - - - - -
16.05.2018 04:00:00 17,7 10,8 4 2 N 1016,6 -
16.05.2018 03:00:00 - - - - - - -
16.05.2018 02:00:00 - - - - - - -
16.05.2018 01:00:00 - - - - - - -
16.05.2018 00:00:00 - - - - - - -
15.05.2018 23:00:00 - - - - - - -
15.05.2018 22:00:00 - - - - - - -
15.05.2018 21:00:00 - - - - - - -
15.05.2018 20:00:00 - - - - - - -
15.05.2018 19:00:00 - - - - - - -
15.05.2018 18:00:00 - - - - - - -
15.05.2018 17:00:00 - - - - - - -
15.05.2018 16:00:00 - - - - - - -
15.05.2018 15:00:00 - - - - - - -
15.05.2018 14:00:00 - - - - - - -
15.05.2018 13:00:00 - - - - - - -

tt = temperatura
td = temperatura punktu rosy
ff = prędkość wiatru
dd = kierunek wiatru
ppp = ciśnienie zredukowane do poziomu morza
rr = opady

Otoczenie

MeteoGroup informuje, że na swoich stronach www stosuje pliki cookies (tzw. ciasteczka). Aby dowiedzieć się więcej na ich temat proszę kliknąć tutaj.